Kasagimaru — JJ3905 — position and weather

sailwx.info

Track history (hours):
 
Tides and Currents Weather Stations Pressure Air Temp Water Temp Dewpoint Dewpoint Depression Visibility Wind Speed Wind Dir Waves Ship Positions

Kasagimaru

Last reported at 2016-Jul-29 22:33 UTC. Time now 2016-Jul-29 23:33 UTC.
Position N 34°13' E 134°59'.

Length 42 m; draft 3.5 m.

Type: Tug. MMSI: 431300268.

Date/timePositionNaut miles runAvg speedWind from/ knotsBaromVisibWave heightAir tempDewpointWater temp
2016-Jul-29 22:33N 34°13' E 134°59'2 0.0
2016-Jul-28 01:25N 34°12' E 134°58'1011.9
2016-Jul-28 00:33N 34°20' E 135°05'1312.6
2016-Jul-27 23:33N 34°27' E 135°18'9 9.1
2016-Jul-27 22:33N 34°33' E 135°27'0 0.0
2016-Jul-27 21:33N 34°33' E 135°27'0 0.0
2016-Jul-27 20:33N 34°33' E 135°27'0 0.0
2016-Jul-27 19:33N 34°33' E 135°27'0 0.0
2016-Jul-27 18:07N 34°33' E 135°27'0 0.0
2016-Jul-27 15:06N 34°33' E 135°27'0 0.0
2016-Jul-27 14:25N 34°33' E 135°27'0 0.0
2016-Jul-27 13:31N 34°33' E 135°27'0 0.0
2016-Jul-27 10:12N 34°33' E 135°27'0 0.0
2016-Jul-27 09:30N 34°33' E 135°27'0 0.0
2016-Jul-27 08:31N 34°33' E 135°27'0 0.0
2016-Jul-27 07:33N 34°33' E 135°27'0 0.0
2016-Jul-27 06:33N 34°33' E 135°27'1 0.5
2016-Jul-27 05:33N 34°33' E 135°26'0 0.1
2016-Jul-27 04:33N 34°33' E 135°26'4 4.5
2016-Jul-27 03:33N 34°33' E 135°21'4 4.2
2016-Jul-27 02:33N 34°33' E 135°26'1 0.7
2016-Jul-27 01:16N 34°33' E 135°27'0 0.0
2016-Jul-27 00:32N 34°33' E 135°27'0 0.0
2016-Jul-26 23:33N 34°33' E 135°27'2 2.0
2016-Jul-26 22:21N 34°32' E 135°24'1 0.7
2016-Jul-26 21:30N 34°32' E 135°24'2 1.2
2016-Jul-26 19:29N 34°33' E 135°27'0 0.0
2016-Jul-26 18:33N 34°33' E 135°27'0 0.0
2016-Jul-26 17:33N 34°33' E 135°27'0 0.0
2016-Jul-26 15:25N 34°33' E 135°27'0 0.0
2016-Jul-26 11:31N 34°33' E 135°27'0 0.0
2016-Jul-26 08:33N 34°33' E 135°27'0 0.0
2016-Jul-26 07:24N 34°33' E 135°27'0 0.0
2016-Jul-26 06:27N 34°33' E 135°27'0 0.0
2016-Jul-26 04:07N 34°33' E 135°27'0 0.0
2016-Jul-26 01:11N 34°33' E 135°27'0 0.2
2016-Jul-26 00:33N 34°33' E 135°27'0 0.3
2016-Jul-25 23:33N 34°33' E 135°26'0 0.2
2016-Jul-25 21:20N 34°33' E 135°27'0 0.0
2016-Jul-25 17:24N 34°33' E 135°27'0 0.0
2016-Jul-25 11:26N 34°33' E 135°27'0 0.0
2016-Jul-25 09:11N 34°33' E 135°27'6 9.6
2016-Jul-25 08:33N 34°30' E 135°20'4 3.8
2016-Jul-25 07:32N 34°26' E 135°19'1 0.9
2016-Jul-25 06:33N 34°27' E 135°19'8 8.3
2016-Jul-25 05:32N 34°33' E 135°26'0 0.0
2016-Jul-25 04:33N 34°33' E 135°26'5 4.6
2016-Jul-25 03:33N 34°34' E 135°20'4 3.5
2016-Jul-25 02:33N 34°31' E 135°23'1 0.2
2016-Jul-24 23:31N 34°32' E 135°23'7 6.8
2016-Jul-24 22:33N 34°26' E 135°19'1 0.7
2016-Jul-24 21:29N 34°27' E 135°19'9 9.4
2016-Jul-24 20:32N 34°33' E 135°26'0 0.5
2016-Jul-24 19:33N 34°33' E 135°27'0 0.0
2016-Jul-24 18:33N 34°33' E 135°27'0 0.0
2016-Jul-24 08:10N 34°33' E 135°27'0 0.0
2016-Jul-24 07:27N 34°33' E 135°27'0 0.0
2016-Jul-24 06:26N 34°33' E 135°27'0 0.0
2016-Jul-24 05:33N 34°33' E 135°27'0 0.0
2016-Jul-24 04:08N 34°33' E 135°27'0 0.0
2016-Jul-24 03:03N 34°33' E 135°27'5 9.4
2016-Jul-24 02:29N 34°31' E 135°21'1111.9
2016-Jul-24 01:33N 34°25' E 135°09'1211.9
2016-Jul-24 00:32N 34°16' E 134°59'  
2016-Jul-20 00:33N 34°22' E 135°09'1211.8
2016-Jul-19 23:33N 34°30' E 135°20'  
Track history (hours):
 
Tides and Currents Weather Stations Pressure Air Temp Water Temp Dewpoint Dewpoint Depression Visibility Wind Speed Wind Dir Waves Ship Positions

Kasagimaru

Last reported at 2016-Jul-29 22:33 UTC. Time now 2016-Jul-29 23:33 UTC.
Position N 34°13' E 134°59'.

Length 42 m; draft 3.5 m.

Type: Tug. MMSI: 431300268.

Date/timePositionNaut miles runAvg speedWind from/ knotsBaromVisibWave heightAir tempDewpointWater temp
2016-Jul-29 22:33N 34°13' E 134°59'2 0.0
2016-Jul-28 01:25N 34°12' E 134°58'1011.9
2016-Jul-28 00:33N 34°20' E 135°05'1312.6
2016-Jul-27 23:33N 34°27' E 135°18'9 9.1
2016-Jul-27 22:33N 34°33' E 135°27'0 0.0
2016-Jul-27 21:33N 34°33' E 135°27'0 0.0
2016-Jul-27 20:33N 34°33' E 135°27'0 0.0
2016-Jul-27 19:33N 34°33' E 135°27'0 0.0
2016-Jul-27 18:07N 34°33' E 135°27'0 0.0
2016-Jul-27 15:06N 34°33' E 135°27'0 0.0
2016-Jul-27 14:25N 34°33' E 135°27'0 0.0
2016-Jul-27 13:31N 34°33' E 135°27'0 0.0
2016-Jul-27 10:12N 34°33' E 135°27'0 0.0
2016-Jul-27 09:30N 34°33' E 135°27'0 0.0
2016-Jul-27 08:31N 34°33' E 135°27'0 0.0
2016-Jul-27 07:33N 34°33' E 135°27'0 0.0
2016-Jul-27 06:33N 34°33' E 135°27'1 0.5
2016-Jul-27 05:33N 34°33' E 135°26'0 0.1
2016-Jul-27 04:33N 34°33' E 135°26'4 4.5
2016-Jul-27 03:33N 34°33' E 135°21'4 4.2
2016-Jul-27 02:33N 34°33' E 135°26'1 0.7
2016-Jul-27 01:16N 34°33' E 135°27'0 0.0
2016-Jul-27 00:32N 34°33' E 135°27'0 0.0
2016-Jul-26 23:33N 34°33' E 135°27'2 2.0
2016-Jul-26 22:21N 34°32' E 135°24'1 0.7
2016-Jul-26 21:30N 34°32' E 135°24'2 1.2
2016-Jul-26 19:29N 34°33' E 135°27'0 0.0
2016-Jul-26 18:33N 34°33' E 135°27'0 0.0
2016-Jul-26 17:33N 34°33' E 135°27'0 0.0
2016-Jul-26 15:25N 34°33' E 135°27'0 0.0
2016-Jul-26 11:31N 34°33' E 135°27'0 0.0
2016-Jul-26 08:33N 34°33' E 135°27'0 0.0
2016-Jul-26 07:24N 34°33' E 135°27'0 0.0
2016-Jul-26 06:27N 34°33' E 135°27'0 0.0
2016-Jul-26 04:07N 34°33' E 135°27'0 0.0
2016-Jul-26 01:11N 34°33' E 135°27'0 0.2
2016-Jul-26 00:33N 34°33' E 135°27'0 0.3
2016-Jul-25 23:33N 34°33' E 135°26'0 0.2
2016-Jul-25 21:20N 34°33' E 135°27'0 0.0
2016-Jul-25 17:24N 34°33' E 135°27'0 0.0
2016-Jul-25 11:26N 34°33' E 135°27'0 0.0
2016-Jul-25 09:11N 34°33' E 135°27'6 9.6
2016-Jul-25 08:33N 34°30' E 135°20'4 3.8
2016-Jul-25 07:32N 34°26' E 135°19'1 0.9
2016-Jul-25 06:33N 34°27' E 135°19'8 8.3
2016-Jul-25 05:32N 34°33' E 135°26'0 0.0
2016-Jul-25 04:33N 34°33' E 135°26'5 4.6
2016-Jul-25 03:33N 34°34' E 135°20'4 3.5
2016-Jul-25 02:33N 34°31' E 135°23'1 0.2
2016-Jul-24 23:31N 34°32' E 135°23'7 6.8
2016-Jul-24 22:33N 34°26' E 135°19'1 0.7
2016-Jul-24 21:29N 34°27' E 135°19'9 9.4
2016-Jul-24 20:32N 34°33' E 135°26'0 0.5
2016-Jul-24 19:33N 34°33' E 135°27'0 0.0
2016-Jul-24 18:33N 34°33' E 135°27'0 0.0
2016-Jul-24 08:10N 34°33' E 135°27'0 0.0
2016-Jul-24 07:27N 34°33' E 135°27'0 0.0
2016-Jul-24 06:26N 34°33' E 135°27'0 0.0
2016-Jul-24 05:33N 34°33' E 135°27'0 0.0
2016-Jul-24 04:08N 34°33' E 135°27'0 0.0
2016-Jul-24 03:03N 34°33' E 135°27'5 9.4
2016-Jul-24 02:29N 34°31' E 135°21'1111.9
2016-Jul-24 01:33N 34°25' E 135°09'1211.9
2016-Jul-24 00:32N 34°16' E 134°59'  
2016-Jul-20 00:33N 34°22' E 135°09'1211.8
2016-Jul-19 23:33N 34°30' E 135°20'  

Dump ship's entire track history